createdAt,value
2023-05-05T00:00:58.644Z,75.85
2023-05-05T00:04:01.648Z,76.74
2023-05-05T00:07:04.548Z,76.16
2023-05-05T00:10:07.685Z,76.46
2023-05-05T00:13:11.451Z,77.11
2023-05-05T00:16:14.631Z,77.19
2023-05-05T00:19:17.423Z,77.98
2023-05-05T00:22:20.382Z,78.41
2023-05-05T00:25:23.243Z,79.11
2023-05-05T00:28:26.077Z,79.12
2023-05-05T00:31:29.183Z,78.96
2023-05-05T00:34:32.058Z,79.66
2023-05-05T00:37:34.978Z,80.30
2023-05-05T00:40:38.317Z,80.01
2023-05-05T00:43:41.073Z,80.14
2023-05-05T00:46:44.112Z,80.25
2023-05-05T00:49:47.185Z,80.83
2023-05-05T00:52:51.069Z,81.56
2023-05-05T00:55:54.152Z,81.80
2023-05-05T00:58:56.982Z,81.94
2023-05-05T01:02:00.118Z,81.60
2023-05-05T01:05:04.327Z,81.27
2023-05-05T01:08:26.809Z,81.40
2023-05-05T01:11:38.917Z,80.83
2023-05-05T01:14:48.163Z,80.70
2023-05-05T01:17:58.802Z,80.90
2023-05-05T01:21:29.498Z,80.74
2023-05-05T01:25:02.335Z,80.54
2023-05-05T01:29:04.216Z,80.60
2023-05-05T01:32:11.763Z,79.09
2023-05-05T01:35:22.160Z,78.87
2023-05-05T01:38:32.518Z,76.96
2023-05-05T01:41:42.641Z,76.86
2023-05-05T01:44:47.680Z,76.97
2023-05-05T01:47:52.737Z,78.67
2023-05-05T01:50:56.115Z,79.50
2023-05-05T01:54:07.807Z,79.84
2023-05-05T01:57:12.932Z,80.34
2023-05-05T02:00:18.092Z,79.87
2023-05-05T02:03:22.967Z,79.90
2023-05-05T02:06:30.019Z,80.96
2023-05-05T02:09:34.127Z,81.14
2023-05-05T02:12:37.632Z,80.84
2023-05-05T02:15:42.154Z,79.97
2023-05-05T02:18:46.374Z,80.48
2023-05-05T02:21:49.218Z,80.90
2023-05-05T02:24:52.432Z,78.60
2023-05-05T02:27:59.709Z,78.77
2023-05-05T02:31:06.089Z,79.23
2023-05-05T02:34:09.318Z,79.80
2023-05-05T02:37:18.093Z,78.36
2023-05-05T02:40:24.540Z,80.17
2023-05-05T02:43:29.848Z,81.04
2023-05-05T02:46:32.831Z,81.19
2023-05-05T02:49:35.654Z,80.82
2023-05-05T02:52:38.632Z,80.16
2023-05-05T02:55:57.508Z,80.47
2023-05-05T02:59:09.123Z,80.77
2023-05-05T03:02:20.745Z,80.63
2023-05-05T03:05:28.629Z,80.72
2023-05-05T03:08:43.132Z,80.85
2023-05-05T03:12:01.470Z,81.91
2023-05-05T03:15:09.377Z,82.35
2023-05-05T03:18:13.248Z,82.63
2023-05-05T03:21:16.611Z,82.97
2023-05-05T03:24:20.815Z,82.73
2023-05-05T03:27:23.633Z,82.66
2023-05-05T03:30:26.540Z,82.50
2023-05-05T03:33:29.330Z,82.05
2023-05-05T03:36:32.248Z,82.01
2023-05-05T03:39:35.022Z,80.31
2023-05-05T03:42:37.887Z,80.81
2023-05-05T03:45:40.761Z,80.87
2023-05-05T03:48:43.734Z,80.61
2023-05-05T03:51:47.389Z,80.15
2023-05-05T03:54:50.286Z,78.62
2023-05-05T03:57:53.222Z,75.82
2023-05-05T04:00:56.005Z,72.77
2023-05-05T04:03:58.739Z,68.62
2023-05-05T04:07:01.760Z,64.79
2023-05-05T04:10:04.930Z,60.93
2023-05-05T04:13:08.876Z,57.41
2023-05-05T04:16:12.197Z,53.25
2023-05-05T04:19:15.041Z,48.53
2023-05-05T04:22:17.818Z,45.32
2023-05-05T04:25:20.629Z,44.84
2023-05-05T04:28:23.388Z,45.43
2023-05-05T04:31:26.173Z,44.82
2023-05-05T04:34:29.121Z,43.50
2023-05-05T04:37:32.069Z,43.00
2023-05-05T04:40:38.832Z,43.64
2023-05-05T04:43:41.568Z,45.69
2023-05-05T04:46:44.523Z,47.45
2023-05-05T04:49:47.381Z,49.96
2023-05-05T04:52:52.559Z,52.59
2023-05-05T04:55:55.696Z,53.37
2023-05-05T04:58:58.623Z,54.75
2023-05-05T05:02:01.745Z,56.02
2023-05-05T05:05:04.886Z,57.39
2023-05-05T05:08:07.659Z,58.49
2023-05-05T05:11:10.643Z,59.44
2023-05-05T05:14:13.456Z,59.94
2023-05-05T05:17:16.454Z,60.23
2023-05-05T05:20:19.773Z,60.57
2023-05-05T05:23:22.509Z,60.66
2023-05-05T05:26:25.409Z,61.04
2023-05-05T05:29:28.260Z,60.52
2023-05-05T05:32:31.149Z,60.65
2023-05-05T05:35:33.930Z,60.60
2023-05-05T05:38:36.767Z,59.48
2023-05-05T05:41:39.543Z,58.68
2023-05-05T05:44:42.367Z,57.62
2023-05-05T05:47:45.225Z,58.62
2023-05-05T05:50:48.032Z,59.59
2023-05-05T05:53:51.968Z,59.73
2023-05-05T05:56:54.777Z,59.48
2023-05-05T05:59:59.688Z,59.48
2023-05-05T06:03:04.137Z,58.20
2023-05-05T06:06:07.630Z,55.77
2023-05-05T06:09:10.473Z,56.42
2023-05-05T06:12:13.212Z,56.10
2023-05-05T06:15:16.068Z,53.38
2023-05-05T06:18:18.994Z,51.61
2023-05-05T06:21:21.769Z,48.97
2023-05-05T06:24:24.595Z,47.68
2023-05-05T06:27:27.410Z,46.30
2023-05-05T06:30:30.173Z,48.24
2023-05-05T06:33:32.969Z,43.43
2023-05-05T06:36:35.838Z,47.22
2023-05-05T06:39:38.824Z,50.56
2023-05-05T06:42:41.800Z,50.33
2023-05-05T06:45:44.654Z,46.73
2023-05-05T06:48:47.671Z,44.02
2023-05-05T06:51:50.461Z,46.61
2023-05-05T06:54:53.350Z,44.39
2023-05-05T06:57:56.113Z,48.03
2023-05-05T07:00:59.180Z,45.24
2023-05-05T07:04:02.134Z,45.40
2023-05-05T07:07:04.941Z,43.98
2023-05-05T07:10:09.812Z,46.59
2023-05-05T07:13:15.634Z,45.10
2023-05-05T07:16:18.380Z,47.27
2023-05-05T07:19:21.153Z,47.69
2023-05-05T07:22:23.920Z,47.22
2023-05-05T07:25:26.816Z,48.06
2023-05-05T07:28:29.583Z,48.61
2023-05-05T07:31:32.439Z,46.97
2023-05-05T07:34:37.411Z,47.81
2023-05-05T07:37:40.286Z,48.39
2023-05-05T07:40:43.069Z,48.23
2023-05-05T07:43:46.196Z,47.14
2023-05-05T07:46:48.997Z,46.66
2023-05-05T07:49:52.104Z,47.40
2023-05-05T07:53:02.353Z,48.07
2023-05-05T07:56:13.245Z,47.34
2023-05-05T07:59:16.072Z,46.34
2023-05-05T08:02:19.099Z,45.31
2023-05-05T08:05:22.006Z,42.58
2023-05-05T08:08:25.205Z,44.36
2023-05-05T08:11:29.646Z,44.05
2023-05-05T08:14:33.193Z,43.00
2023-05-05T08:17:50.407Z,43.43
2023-05-05T08:20:54.772Z,42.95
2023-05-05T08:23:57.590Z,43.59
2023-05-05T08:27:00.863Z,39.60
2023-05-05T08:30:04.495Z,41.01
2023-05-05T08:33:07.369Z,40.64
2023-05-05T08:36:10.406Z,39.15
2023-05-05T08:39:13.274Z,38.54
2023-05-05T08:42:28.926Z,40.35
2023-05-05T08:45:38.572Z,40.43
2023-05-05T08:48:42.735Z,40.97
2023-05-05T08:51:46.747Z,44.06
2023-05-05T08:55:05.546Z,43.49
2023-05-05T08:58:09.955Z,44.47
2023-05-05T09:01:14.294Z,44.38
2023-05-05T09:04:19.195Z,44.99
2023-05-05T09:07:22.502Z,44.56
2023-05-05T09:10:26.578Z,46.58
2023-05-05T09:13:31.129Z,44.62
2023-05-05T09:16:34.054Z,43.42
2023-05-05T09:20:04.532Z,43.44
2023-05-05T09:23:14.525Z,42.25
2023-05-05T09:26:17.326Z,41.81
2023-05-05T09:29:21.565Z,44.50
2023-05-05T09:32:25.182Z,40.53
2023-05-05T09:35:28.658Z,39.93
2023-05-05T09:38:31.555Z,38.40
2023-05-05T09:41:39.354Z,39.83
2023-05-05T09:44:42.382Z,37.22
2023-05-05T09:47:49.182Z,37.48
2023-05-05T09:50:52.609Z,38.10
2023-05-05T09:53:55.419Z,35.85
2023-05-05T09:56:58.304Z,34.37
2023-05-05T10:00:02.665Z,34.31
2023-05-05T10:03:05.581Z,34.47
2023-05-05T10:06:08.408Z,35.73
2023-05-05T10:09:11.295Z,34.98
2023-05-05T10:12:14.157Z,34.57
2023-05-05T10:15:17.908Z,35.97
2023-05-05T10:18:28.743Z,36.24
2023-05-05T10:21:34.388Z,36.54
2023-05-05T10:24:47.122Z,36.33
2023-05-05T10:27:53.166Z,35.43
2023-05-05T10:30:58.519Z,33.72
2023-05-05T10:34:04.274Z,35.36
2023-05-05T10:37:07.826Z,34.50
2023-05-05T10:40:11.899Z,34.55
2023-05-05T10:43:15.245Z,35.66
2023-05-05T10:46:18.262Z,38.28
2023-05-05T10:49:39.972Z,39.34
2023-05-05T10:52:54.899Z,38.51
2023-05-05T10:56:10.540Z,38.17
2023-05-05T10:59:39.046Z,38.94
2023-05-05T11:02:42.055Z,38.19
2023-05-05T11:06:03.990Z,38.89
2023-05-05T11:09:29.247Z,36.78
2023-05-05T11:12:35.494Z,37.20
2023-05-05T11:15:39.810Z,35.51
2023-05-05T11:18:45.719Z,35.61
2023-05-05T11:22:01.749Z,35.60
2023-05-05T11:25:42.218Z,34.27
2023-05-05T11:29:14.403Z,35.30
2023-05-05T11:32:17.224Z,34.02
2023-05-05T11:35:20.187Z,33.28
2023-05-05T11:38:58.649Z,33.27
2023-05-05T11:42:24.617Z,34.65
2023-05-05T11:45:27.518Z,35.84
2023-05-05T11:48:30.329Z,34.74
2023-05-05T11:51:33.606Z,34.20
2023-05-05T11:54:38.455Z,33.40
2023-05-05T11:57:41.268Z,33.04
2023-05-05T12:00:44.105Z,33.00
2023-05-05T12:03:47.198Z,31.29
2023-05-05T12:06:50.300Z,32.49
2023-05-05T12:09:53.893Z,31.14
2023-05-05T12:12:56.761Z,31.98
2023-05-05T12:16:16.987Z,30.62
2023-05-05T12:19:19.919Z,32.83
2023-05-05T12:22:24.773Z,32.82
2023-05-05T12:25:35.740Z,30.74
2023-05-05T12:28:48.506Z,29.47
2023-05-05T12:31:51.652Z,29.32
2023-05-05T12:34:57.363Z,26.33
2023-05-05T12:38:00.563Z,28.76
2023-05-05T12:41:03.769Z,29.36
2023-05-05T12:44:06.827Z,29.08
2023-05-05T12:47:11.251Z,26.69
2023-05-05T12:50:14.083Z,27.70
2023-05-05T12:53:24.333Z,27.89
2023-05-05T12:56:44.255Z,25.98
2023-05-05T12:59:47.297Z,27.63
2023-05-05T13:02:50.165Z,28.61
2023-05-05T13:05:52.982Z,29.44
2023-05-05T13:08:57.219Z,28.42
2023-05-05T13:12:00.234Z,26.55
2023-05-05T13:15:03.585Z,27.80
2023-05-05T13:18:06.574Z,29.14
2023-05-05T13:21:09.444Z,26.98
2023-05-05T13:24:28.142Z,27.63
2023-05-05T13:27:35.318Z,27.24
2023-05-05T13:30:38.305Z,27.20
2023-05-05T13:33:41.782Z,26.53
2023-05-05T13:36:44.764Z,26.77
2023-05-05T13:39:47.519Z,26.59
2023-05-05T13:42:50.340Z,24.08
2023-05-05T13:46:05.561Z,25.22
2023-05-05T13:49:11.980Z,25.63
2023-05-05T13:52:15.080Z,23.10
2023-05-05T13:55:18.187Z,23.33
2023-05-05T13:58:21.140Z,24.35
2023-05-05T14:01:24.079Z,23.34
2023-05-05T14:04:26.898Z,22.81
2023-05-05T14:07:29.708Z,23.25
2023-05-05T14:10:32.480Z,22.27
2023-05-05T14:13:35.226Z,23.90
2023-05-05T14:16:38.007Z,23.43
2023-05-05T14:19:40.986Z,22.90
2023-05-05T14:22:43.914Z,21.55
2023-05-05T14:25:46.845Z,22.24
2023-05-05T14:28:50.156Z,21.13
2023-05-05T14:31:53.098Z,21.90
2023-05-05T14:34:56.467Z,23.95
2023-05-05T14:37:59.406Z,22.66
2023-05-05T14:41:02.163Z,21.71
2023-05-05T14:44:05.107Z,22.04
2023-05-05T14:47:07.957Z,22.97
2023-05-05T14:50:11.127Z,23.24
2023-05-05T14:53:13.867Z,22.00
2023-05-05T14:56:17.240Z,21.75
2023-05-05T14:59:20.110Z,20.90
2023-05-05T15:02:22.969Z,21.89
2023-05-05T15:05:25.919Z,21.22
2023-05-05T15:08:28.829Z,21.28
2023-05-05T15:11:31.561Z,21.59
2023-05-05T15:14:34.401Z,22.10
2023-05-05T15:17:38.869Z,22.70
2023-05-05T15:20:42.054Z,23.93
2023-05-05T15:23:45.120Z,22.78
2023-05-05T15:26:47.900Z,23.17
2023-05-05T15:29:50.687Z,24.23
2023-05-05T15:32:54.196Z,23.54
2023-05-05T15:35:57.125Z,24.29
2023-05-05T15:38:59.871Z,24.55
2023-05-05T15:42:05.752Z,25.10
2023-05-05T15:45:12.576Z,24.93
2023-05-05T15:48:15.446Z,25.35
2023-05-05T15:51:18.389Z,25.32
2023-05-05T15:54:21.237Z,25.13
2023-05-05T15:57:24.060Z,24.28
2023-05-05T16:00:27.057Z,24.54
2023-05-05T16:03:29.825Z,24.48
2023-05-05T16:06:32.837Z,24.33
2023-05-05T16:09:35.762Z,24.89
2023-05-05T16:12:38.594Z,24.94
2023-05-05T16:15:41.380Z,25.96
2023-05-05T16:18:44.220Z,26.01
2023-05-05T16:21:47.100Z,26.36
2023-05-05T16:24:49.862Z,26.88
2023-05-05T16:27:53.841Z,27.14
2023-05-05T16:30:56.684Z,27.39
2023-05-05T16:34:00.233Z,27.66
2023-05-05T16:37:03.519Z,28.32
2023-05-05T16:40:06.895Z,28.87
2023-05-05T16:43:09.662Z,29.88
2023-05-05T16:46:12.658Z,30.60
2023-05-05T16:49:15.461Z,31.10
2023-05-05T16:52:18.818Z,31.13
2023-05-05T16:55:21.687Z,31.68
2023-05-05T16:58:24.571Z,32.34
2023-05-05T17:01:27.512Z,33.04
2023-05-05T17:04:30.391Z,33.19
2023-05-05T17:07:33.230Z,32.84
2023-05-05T17:10:36.379Z,32.45
2023-05-05T17:13:39.257Z,32.30
2023-05-05T17:16:42.258Z,32.60
2023-05-05T17:19:45.486Z,32.73
2023-05-05T17:22:48.327Z,32.79
2023-05-05T17:25:51.653Z,32.86
2023-05-05T17:28:54.402Z,33.03
2023-05-05T17:31:57.265Z,33.54
2023-05-05T17:35:00.005Z,33.82
2023-05-05T17:38:02.774Z,34.43
2023-05-05T17:41:06.507Z,35.23
2023-05-05T17:44:09.368Z,36.22
2023-05-05T17:47:12.140Z,36.49
2023-05-05T17:50:14.975Z,37.41
2023-05-05T17:53:17.855Z,38.42
2023-05-05T17:56:20.622Z,39.70
2023-05-05T17:59:23.524Z,40.08
2023-05-05T18:02:26.429Z,40.39
2023-05-05T18:05:30.427Z,40.88
2023-05-05T18:08:33.208Z,40.98
2023-05-05T18:11:35.996Z,41.70
2023-05-05T18:14:38.865Z,42.21
2023-05-05T18:17:41.651Z,42.61
2023-05-05T18:20:44.486Z,43.40
2023-05-05T18:23:47.424Z,43.88
2023-05-05T18:26:51.762Z,44.19
2023-05-05T18:29:55.322Z,44.24
2023-05-05T18:32:58.244Z,44.37
2023-05-05T18:36:03.338Z,44.33
2023-05-05T18:39:06.203Z,45.01
2023-05-05T18:42:08.998Z,44.60
2023-05-05T18:45:12.058Z,45.03
2023-05-05T18:48:14.845Z,45.64
2023-05-05T18:51:17.627Z,45.68
2023-05-05T18:54:22.094Z,46.34
2023-05-05T18:57:24.902Z,46.09
2023-05-05T19:00:27.684Z,46.05
2023-05-05T19:03:30.654Z,46.43
2023-05-05T19:06:33.426Z,47.12
2023-05-05T19:09:36.201Z,47.23
2023-05-05T19:12:39.099Z,47.71
2023-05-05T19:15:41.993Z,47.14
2023-05-05T19:18:44.867Z,47.55
2023-05-05T19:21:47.720Z,47.85
2023-05-05T19:24:50.707Z,48.02
2023-05-05T19:27:53.496Z,48.31
2023-05-05T19:30:56.314Z,48.67
2023-05-05T19:34:04.720Z,48.93
2023-05-05T19:37:07.574Z,49.18
2023-05-05T19:40:11.087Z,49.24
2023-05-05T19:43:14.443Z,49.22
2023-05-05T19:46:17.419Z,50.01
2023-05-05T19:49:20.262Z,49.94
2023-05-05T19:52:23.022Z,50.09
2023-05-05T19:55:25.879Z,50.04
2023-05-05T19:58:28.920Z,50.03
2023-05-05T20:01:33.173Z,49.68
2023-05-05T20:04:36.027Z,49.37
2023-05-05T20:07:38.889Z,49.13
2023-05-05T20:10:41.761Z,49.09
2023-05-05T20:13:44.674Z,48.95
2023-05-05T20:16:48.044Z,48.84
2023-05-05T20:19:50.964Z,48.69
2023-05-05T20:22:53.768Z,49.09
2023-05-05T20:25:56.822Z,48.96
2023-05-05T20:28:59.678Z,49.01
2023-05-05T20:32:02.468Z,49.49
2023-05-05T20:35:06.203Z,49.96
2023-05-05T20:38:09.858Z,50.52
2023-05-05T20:41:12.620Z,50.69
2023-05-05T20:44:15.666Z,51.29
2023-05-05T20:47:18.524Z,51.03
2023-05-05T20:50:21.478Z,50.70
2023-05-05T20:53:25.506Z,51.39
2023-05-05T20:56:28.529Z,52.13
2023-05-05T20:59:32.230Z,50.98
2023-05-05T21:02:35.176Z,52.78
2023-05-05T21:05:39.609Z,52.21
2023-05-05T21:08:42.400Z,52.87
2023-05-05T21:11:45.167Z,52.34
2023-05-05T21:14:47.958Z,52.72
2023-05-05T21:17:51.358Z,53.90
2023-05-05T21:20:54.217Z,53.50
2023-05-05T21:23:57.704Z,54.67
2023-05-05T21:27:00.610Z,54.88
2023-05-05T21:30:03.586Z,55.53
2023-05-05T21:33:06.438Z,56.37
2023-05-05T21:36:09.411Z,57.01
2023-05-05T21:39:12.201Z,57.64
2023-05-05T21:42:15.399Z,58.02
2023-05-05T21:45:18.226Z,57.21
2023-05-05T21:48:21.149Z,55.95
2023-05-05T21:51:23.989Z,58.51
2023-05-05T21:54:27.068Z,58.01
2023-05-05T21:57:30.460Z,57.74
2023-05-05T22:00:33.266Z,59.86
2023-05-05T22:03:36.645Z,60.44
2023-05-05T22:06:39.568Z,61.05
2023-05-05T22:09:43.172Z,62.46
2023-05-05T22:12:46.019Z,62.48
2023-05-05T22:15:49.038Z,62.99
2023-05-05T22:18:52.153Z,62.82
2023-05-05T22:21:54.983Z,63.93
2023-05-05T22:24:57.835Z,63.86
2023-05-05T22:28:00.682Z,64.34
2023-05-05T22:31:03.629Z,62.11
2023-05-05T22:34:06.620Z,63.03
2023-05-05T22:37:09.662Z,63.20
2023-05-05T22:40:13.031Z,64.33
2023-05-05T22:43:15.901Z,63.90
2023-05-05T22:46:18.728Z,65.05
2023-05-05T22:49:22.886Z,65.53
2023-05-05T22:52:28.292Z,65.93
2023-05-05T22:55:31.225Z,66.49
2023-05-05T22:58:34.255Z,65.17
2023-05-05T23:01:37.298Z,63.01
2023-05-05T23:04:40.318Z,67.55
2023-05-05T23:07:43.179Z,64.35
2023-05-05T23:10:46.072Z,64.08
2023-05-05T23:13:48.855Z,64.03
2023-05-05T23:16:51.724Z,65.55
2023-05-05T23:19:54.713Z,66.57
2023-05-05T23:22:57.432Z,67.12
2023-05-05T23:26:00.266Z,67.89
2023-05-05T23:29:03.258Z,67.69
2023-05-05T23:32:06.528Z,68.13
2023-05-05T23:35:09.965Z,68.18
2023-05-05T23:38:13.181Z,69.22
2023-05-05T23:41:15.982Z,71.42
2023-05-05T23:44:18.780Z,71.79
2023-05-05T23:47:21.608Z,70.47
2023-05-05T23:50:25.895Z,69.35
2023-05-05T23:53:28.703Z,68.30
2023-05-05T23:56:31.952Z,67.02
2023-05-05T23:59:34.890Z,68.25
